sensor_id;sensor_type;location;lat;lon;timestamp;temperature;humidity
3705;DHT22;1868;48.918;9.438;2023-05-10T00:01:32;14.60;97.40
3705;DHT22;1868;48.918;9.438;2023-05-10T00:04:01;14.60;97.40
3705;DHT22;1868;48.918;9.438;2023-05-10T00:06:30;14.60;97.40
3705;DHT22;1868;48.918;9.438;2023-05-10T00:08:59;14.60;97.40
3705;DHT22;1868;48.918;9.438;2023-05-10T00:11:30;14.60;97.40
3705;DHT22;1868;48.918;9.438;2023-05-10T00:13:58;14.60;97.40
3705;DHT22;1868;48.918;9.438;2023-05-10T00:16:27;14.50;97.40
3705;DHT22;1868;48.918;9.438;2023-05-10T00:18:58;14.60;97.40
3705;DHT22;1868;48.918;9.438;2023-05-10T00:21:26;14.60;97.40
3705;DHT22;1868;48.918;9.438;2023-05-10T00:23:56;14.60;97.40
3705;DHT22;1868;48.918;9.438;2023-05-10T00:26:24;14.50;97.40
3705;DHT22;1868;48.918;9.438;2023-05-10T00:28:55;14.50;97.40
3705;DHT22;1868;48.918;9.438;2023-05-10T00:31:26;14.50;97.40
3705;DHT22;1868;48.918;9.438;2023-05-10T00:33:58;14.40;97.40
3705;DHT22;1868;48.918;9.438;2023-05-10T00:36:27;14.40;97.40
3705;DHT22;1868;48.918;9.438;2023-05-10T00:38:55;14.40;97.40
3705;DHT22;1868;48.918;9.438;2023-05-10T00:41:24;14.40;97.40
3705;DHT22;1868;48.918;9.438;2023-05-10T00:43:55;14.40;97.40
3705;DHT22;1868;48.918;9.438;2023-05-10T00:46:24;14.40;97.40
3705;DHT22;1868;48.918;9.438;2023-05-10T00:48:55;14.30;97.40
3705;DHT22;1868;48.918;9.438;2023-05-10T00:51:26;14.30;97.40
3705;DHT22;1868;48.918;9.438;2023-05-10T00:53:55;14.20;97.40
3705;DHT22;1868;48.918;9.438;2023-05-10T00:56:27;14.20;97.40
3705;DHT22;1868;48.918;9.438;2023-05-10T00:58:56;14.20;97.40
3705;DHT22;1868;48.918;9.438;2023-05-10T01:01:25;14.10;97.40
3705;DHT22;1868;48.918;9.438;2023-05-10T01:03:55;14.10;97.40
3705;DHT22;1868;48.918;9.438;2023-05-10T01:06:26;14.10;97.40
3705;DHT22;1868;48.918;9.438;2023-05-10T01:08:55;14.10;97.40
3705;DHT22;1868;48.918;9.438;2023-05-10T01:11:24;14.00;97.40
3705;DHT22;1868;48.918;9.438;2023-05-10T01:13:56;13.90;97.40
3705;DHT22;1868;48.918;9.438;2023-05-10T01:16:28;13.90;97.40
3705;DHT22;1868;48.918;9.438;2023-05-10T01:19:00;13.90;97.40
3705;DHT22;1868;48.918;9.438;2023-05-10T01:21:36;13.90;97.40
3705;DHT22;1868;48.918;9.438;2023-05-10T01:24:17;13.80;97.40
3705;DHT22;1868;48.918;9.438;2023-05-10T01:31:06;13.70;97.40
3705;DHT22;1868;48.918;9.438;2023-05-10T01:33:47;13.70;97.40
3705;DHT22;1868;48.918;9.438;2023-05-10T01:36:23;13.60;97.40
3705;DHT22;1868;48.918;9.438;2023-05-10T01:38:59;13.50;97.40
3705;DHT22;1868;48.918;9.438;2023-05-10T01:41:48;13.50;97.40
3705;DHT22;1868;48.918;9.438;2023-05-10T01:44:27;13.50;97.40
3705;DHT22;1868;48.918;9.438;2023-05-10T01:47:04;13.50;97.40
3705;DHT22;1868;48.918;9.438;2023-05-10T01:49:41;13.50;97.40
3705;DHT22;1868;48.918;9.438;2023-05-10T01:52:13;13.50;97.40
3705;DHT22;1868;48.918;9.438;2023-05-10T01:54:50;13.50;97.40
3705;DHT22;1868;48.918;9.438;2023-05-10T01:57:26;13.50;97.40
3705;DHT22;1868;48.918;9.438;2023-05-10T02:00:01;13.50;97.40
3705;DHT22;1868;48.918;9.438;2023-05-10T02:02:42;13.40;97.40
3705;DHT22;1868;48.918;9.438;2023-05-10T02:05:16;13.50;97.40
3705;DHT22;1868;48.918;9.438;2023-05-10T02:07:46;13.50;97.40
3705;DHT22;1868;48.918;9.438;2023-05-10T02:10:16;13.50;97.40
3705;DHT22;1868;48.918;9.438;2023-05-10T02:12:47;13.40;97.40
3705;DHT22;1868;48.918;9.438;2023-05-10T02:15:19;13.40;97.40
3705;DHT22;1868;48.918;9.438;2023-05-10T02:17:49;13.40;97.40
3705;DHT22;1868;48.918;9.438;2023-05-10T02:20:20;13.40;97.40
3705;DHT22;1868;48.918;9.438;2023-05-10T02:22:54;13.40;97.40
3705;DHT22;1868;48.918;9.438;2023-05-10T02:25:27;13.40;97.40
3705;DHT22;1868;48.918;9.438;2023-05-10T02:27:58;13.40;97.40
3705;DHT22;1868;48.918;9.438;2023-05-10T02:30:31;13.40;97.40
3705;DHT22;1868;48.918;9.438;2023-05-10T02:33:03;13.40;97.40
3705;DHT22;1868;48.918;9.438;2023-05-10T02:35:35;13.30;97.40
3705;DHT22;1868;48.918;9.438;2023-05-10T02:38:09;13.40;97.40
3705;DHT22;1868;48.918;9.438;2023-05-10T02:40:41;13.30;97.40
3705;DHT22;1868;48.918;9.438;2023-05-10T02:43:12;13.30;97.40
3705;DHT22;1868;48.918;9.438;2023-05-10T02:45:44;13.30;97.40
3705;DHT22;1868;48.918;9.438;2023-05-10T02:48:16;13.30;97.40
3705;DHT22;1868;48.918;9.438;2023-05-10T02:50:47;13.30;97.40
3705;DHT22;1868;48.918;9.438;2023-05-10T02:53:32;13.30;97.40
3705;DHT22;1868;48.918;9.438;2023-05-10T02:56:07;13.30;97.40
3705;DHT22;1868;48.918;9.438;2023-05-10T02:58:42;13.30;97.40
3705;DHT22;1868;48.918;9.438;2023-05-10T03:01:10;13.30;97.40
3705;DHT22;1868;48.918;9.438;2023-05-10T03:03:40;13.30;97.40
3705;DHT22;1868;48.918;9.438;2023-05-10T03:06:12;13.30;97.40
3705;DHT22;1868;48.918;9.438;2023-05-10T03:08:41;13.30;97.40
3705;DHT22;1868;48.918;9.438;2023-05-10T03:11:25;13.30;97.40
3705;DHT22;1868;48.918;9.438;2023-05-10T03:14:11;13.30;97.40
3705;DHT22;1868;48.918;9.438;2023-05-10T03:16:54;13.40;97.40
3705;DHT22;1868;48.918;9.438;2023-05-10T03:19:30;13.40;97.40
3705;DHT22;1868;48.918;9.438;2023-05-10T03:22:06;13.40;97.40
3705;DHT22;1868;48.918;9.438;2023-05-10T03:24:39;13.30;97.40
3705;DHT22;1868;48.918;9.438;2023-05-10T03:27:10;13.40;97.40
3705;DHT22;1868;48.918;9.438;2023-05-10T03:29:40;13.40;97.40
3705;DHT22;1868;48.918;9.438;2023-05-10T03:32:12;13.40;97.40
3705;DHT22;1868;48.918;9.438;2023-05-10T03:34:43;13.40;97.40
3705;DHT22;1868;48.918;9.438;2023-05-10T03:37:13;13.40;97.40
3705;DHT22;1868;48.918;9.438;2023-05-10T03:39:43;13.40;97.40
3705;DHT22;1868;48.918;9.438;2023-05-10T03:42:12;13.40;97.40
3705;DHT22;1868;48.918;9.438;2023-05-10T03:44:40;13.40;97.40
3705;DHT22;1868;48.918;9.438;2023-05-10T03:47:09;13.40;97.40
3705;DHT22;1868;48.918;9.438;2023-05-10T03:49:38;13.40;97.40
3705;DHT22;1868;48.918;9.438;2023-05-10T03:52:10;13.40;97.40
3705;DHT22;1868;48.918;9.438;2023-05-10T03:54:41;13.40;97.40
3705;DHT22;1868;48.918;9.438;2023-05-10T03:57:10;13.40;97.40
3705;DHT22;1868;48.918;9.438;2023-05-10T03:59:39;13.50;97.40
3705;DHT22;1868;48.918;9.438;2023-05-10T04:02:08;13.40;97.40
3705;DHT22;1868;48.918;9.438;2023-05-10T04:04:39;13.50;97.40
3705;DHT22;1868;48.918;9.438;2023-05-10T04:07:09;13.50;97.40
3705;DHT22;1868;48.918;9.438;2023-05-10T04:09:42;13.50;97.40
3705;DHT22;1868;48.918;9.438;2023-05-10T04:12:11;13.50;97.40
3705;DHT22;1868;48.918;9.438;2023-05-10T04:14:40;13.50;97.40
3705;DHT22;1868;48.918;9.438;2023-05-10T04:17:09;13.50;97.40
3705;DHT22;1868;48.918;9.438;2023-05-10T04:19:38;13.40;97.40
3705;DHT22;1868;48.918;9.438;2023-05-10T04:22:07;13.40;97.40
3705;DHT22;1868;48.918;9.438;2023-05-10T04:24:36;13.40;97.40
3705;DHT22;1868;48.918;9.438;2023-05-10T04:27:06;13.50;97.40
3705;DHT22;1868;48.918;9.438;2023-05-10T04:29:35;13.50;97.40
3705;DHT22;1868;48.918;9.438;2023-05-10T04:32:04;13.50;97.40
3705;DHT22;1868;48.918;9.438;2023-05-10T04:34:33;13.50;97.40
3705;DHT22;1868;48.918;9.438;2023-05-10T04:37:02;13.50;97.40
3705;DHT22;1868;48.918;9.438;2023-05-10T04:39:31;13.60;97.40
3705;DHT22;1868;48.918;9.438;2023-05-10T04:42:06;13.60;97.40
3705;DHT22;1868;48.918;9.438;2023-05-10T04:44:35;13.60;97.40
3705;DHT22;1868;48.918;9.438;2023-05-10T04:47:04;13.60;97.40
3705;DHT22;1868;48.918;9.438;2023-05-10T04:49:33;13.60;97.40
3705;DHT22;1868;48.918;9.438;2023-05-10T04:52:01;13.60;97.40
3705;DHT22;1868;48.918;9.438;2023-05-10T04:54:30;13.60;97.40
3705;DHT22;1868;48.918;9.438;2023-05-10T04:56:59;13.60;97.40
3705;DHT22;1868;48.918;9.438;2023-05-10T04:59:29;13.70;97.40
3705;DHT22;1868;48.918;9.438;2023-05-10T05:01:58;13.70;97.40
3705;DHT22;1868;48.918;9.438;2023-05-10T05:04:27;13.70;97.40
3705;DHT22;1868;48.918;9.438;2023-05-10T05:06:56;13.70;97.40
3705;DHT22;1868;48.918;9.438;2023-05-10T05:09:27;13.70;97.40
3705;DHT22;1868;48.918;9.438;2023-05-10T05:11:56;13.70;97.40
3705;DHT22;1868;48.918;9.438;2023-05-10T05:14:24;13.70;97.40
3705;DHT22;1868;48.918;9.438;2023-05-10T05:16:56;13.70;97.40
3705;DHT22;1868;48.918;9.438;2023-05-10T05:19:24;13.70;97.40
3705;DHT22;1868;48.918;9.438;2023-05-10T05:21:54;13.80;97.40
3705;DHT22;1868;48.918;9.438;2023-05-10T05:24:23;13.90;97.40
3705;DHT22;1868;48.918;9.438;2023-05-10T05:26:53;13.90;97.40
3705;DHT22;1868;48.918;9.438;2023-05-10T05:29:22;14.00;97.40
3705;DHT22;1868;48.918;9.438;2023-05-10T05:31:51;14.10;97.40
3705;DHT22;1868;48.918;9.438;2023-05-10T05:34:22;14.10;97.40
3705;DHT22;1868;48.918;9.438;2023-05-10T05:36:51;14.20;97.40
3705;DHT22;1868;48.918;9.438;2023-05-10T05:39:22;14.20;97.40
3705;DHT22;1868;48.918;9.438;2023-05-10T05:41:50;14.30;97.40
3705;DHT22;1868;48.918;9.438;2023-05-10T05:44:20;14.30;97.40
3705;DHT22;1868;48.918;9.438;2023-05-10T05:46:49;14.40;97.40
3705;DHT22;1868;48.918;9.438;2023-05-10T05:49:18;14.40;97.40
3705;DHT22;1868;48.918;9.438;2023-05-10T05:51:49;14.40;97.40
3705;DHT22;1868;48.918;9.438;2023-05-10T05:54:20;14.40;97.40
3705;DHT22;1868;48.918;9.438;2023-05-10T05:56:48;14.50;97.40
3705;DHT22;1868;48.918;9.438;2023-05-10T05:59:17;14.60;97.40
3705;DHT22;1868;48.918;9.438;2023-05-10T06:01:46;14.60;97.40
3705;DHT22;1868;48.918;9.438;2023-05-10T06:04:16;14.70;97.40
3705;DHT22;1868;48.918;9.438;2023-05-10T06:06:45;14.70;97.40
3705;DHT22;1868;48.918;9.438;2023-05-10T06:09:15;14.80;97.40
3705;DHT22;1868;48.918;9.438;2023-05-10T06:11:44;14.80;97.40
3705;DHT22;1868;48.918;9.438;2023-05-10T06:14:14;14.90;97.40
3705;DHT22;1868;48.918;9.438;2023-05-10T06:16:44;14.90;97.40
3705;DHT22;1868;48.918;9.438;2023-05-10T06:19:13;15.00;97.40
3705;DHT22;1868;48.918;9.438;2023-05-10T06:21:42;15.00;97.40
3705;DHT22;1868;48.918;9.438;2023-05-10T06:24:12;15.00;97.40
3705;DHT22;1868;48.918;9.438;2023-05-10T06:26:42;14.90;97.40
3705;DHT22;1868;48.918;9.438;2023-05-10T06:29:11;14.90;97.40
3705;DHT22;1868;48.918;9.438;2023-05-10T06:31:42;15.00;97.40
3705;DHT22;1868;48.918;9.438;2023-05-10T06:34:11;15.00;97.40
3705;DHT22;1868;48.918;9.438;2023-05-10T06:36:40;15.00;97.40
3705;DHT22;1868;48.918;9.438;2023-05-10T06:39:09;15.00;97.40
3705;DHT22;1868;48.918;9.438;2023-05-10T06:41:38;15.00;97.40
3705;DHT22;1868;48.918;9.438;2023-05-10T06:44:09;15.10;97.40
3705;DHT22;1868;48.918;9.438;2023-05-10T06:46:38;15.10;97.40
3705;DHT22;1868;48.918;9.438;2023-05-10T06:49:06;15.10;97.40
3705;DHT22;1868;48.918;9.438;2023-05-10T06:51:36;15.10;97.40
3705;DHT22;1868;48.918;9.438;2023-05-10T06:54:05;15.10;97.40
3705;DHT22;1868;48.918;9.438;2023-05-10T06:56:33;15.10;97.40
3705;DHT22;1868;48.918;9.438;2023-05-10T06:59:02;15.10;97.40
3705;DHT22;1868;48.918;9.438;2023-05-10T07:01:32;15.10;97.40
3705;DHT22;1868;48.918;9.438;2023-05-10T07:04:01;15.20;97.40
3705;DHT22;1868;48.918;9.438;2023-05-10T07:06:31;15.10;97.40
3705;DHT22;1868;48.918;9.438;2023-05-10T07:09:00;15.10;97.40
3705;DHT22;1868;48.918;9.438;2023-05-10T07:11:29;15.20;97.40
3705;DHT22;1868;48.918;9.438;2023-05-10T07:13:58;15.30;97.40
3705;DHT22;1868;48.918;9.438;2023-05-10T07:16:27;15.40;97.40
3705;DHT22;1868;48.918;9.438;2023-05-10T07:18:57;15.50;97.40
3705;DHT22;1868;48.918;9.438;2023-05-10T07:21:26;15.50;97.40
3705;DHT22;1868;48.918;9.438;2023-05-10T07:23:55;15.60;97.40
3705;DHT22;1868;48.918;9.438;2023-05-10T07:26:24;15.70;97.40
3705;DHT22;1868;48.918;9.438;2023-05-10T07:28:55;15.80;97.40
3705;DHT22;1868;48.918;9.438;2023-05-10T07:31:24;15.90;97.40
3705;DHT22;1868;48.918;9.438;2023-05-10T07:33:53;16.00;97.40
3705;DHT22;1868;48.918;9.438;2023-05-10T07:36:24;16.00;97.40
3705;DHT22;1868;48.918;9.438;2023-05-10T07:38:53;16.00;97.40
3705;DHT22;1868;48.918;9.438;2023-05-10T07:41:22;16.10;97.40
3705;DHT22;1868;48.918;9.438;2023-05-10T07:43:51;16.10;97.40
3705;DHT22;1868;48.918;9.438;2023-05-10T07:46:20;16.20;97.40
3705;DHT22;1868;48.918;9.438;2023-05-10T07:48:49;16.20;97.40
3705;DHT22;1868;48.918;9.438;2023-05-10T07:51:18;16.20;97.40
3705;DHT22;1868;48.918;9.438;2023-05-10T07:53:49;16.20;97.40
3705;DHT22;1868;48.918;9.438;2023-05-10T07:56:23;16.20;97.40
3705;DHT22;1868;48.918;9.438;2023-05-10T07:58:55;16.10;97.40
3705;DHT22;1868;48.918;9.438;2023-05-10T08:01:24;16.10;97.40
3705;DHT22;1868;48.918;9.438;2023-05-10T08:03:54;16.00;97.40
3705;DHT22;1868;48.918;9.438;2023-05-10T08:06:23;16.00;97.40
3705;DHT22;1868;48.918;9.438;2023-05-10T08:08:55;15.90;97.40
3705;DHT22;1868;48.918;9.438;2023-05-10T08:11:24;16.00;97.40
3705;DHT22;1868;48.918;9.438;2023-05-10T08:13:54;15.90;97.40
3705;DHT22;1868;48.918;9.438;2023-05-10T08:16:23;16.00;97.40
3705;DHT22;1868;48.918;9.438;2023-05-10T08:18:51;15.90;97.40
3705;DHT22;1868;48.918;9.438;2023-05-10T08:21:22;15.90;97.40
3705;DHT22;1868;48.918;9.438;2023-05-10T08:23:55;15.90;97.40
3705;DHT22;1868;48.918;9.438;2023-05-10T08:26:25;15.80;97.40
3705;DHT22;1868;48.918;9.438;2023-05-10T08:28:53;15.80;97.40
3705;DHT22;1868;48.918;9.438;2023-05-10T08:31:24;15.80;97.40
3705;DHT22;1868;48.918;9.438;2023-05-10T08:33:53;15.70;97.40
3705;DHT22;1868;48.918;9.438;2023-05-10T08:36:22;15.70;97.40
3705;DHT22;1868;48.918;9.438;2023-05-10T08:38:51;15.60;97.40
3705;DHT22;1868;48.918;9.438;2023-05-10T08:41:23;15.70;97.40
3705;DHT22;1868;48.918;9.438;2023-05-10T08:43:53;15.70;97.40
3705;DHT22;1868;48.918;9.438;2023-05-10T08:46:22;15.80;97.40
3705;DHT22;1868;48.918;9.438;2023-05-10T08:48:51;15.90;97.40
3705;DHT22;1868;48.918;9.438;2023-05-10T08:51:24;16.10;97.40
3705;DHT22;1868;48.918;9.438;2023-05-10T08:53:54;16.30;97.40
3705;DHT22;1868;48.918;9.438;2023-05-10T08:56:24;16.50;97.40
3705;DHT22;1868;48.918;9.438;2023-05-10T08:58:53;16.80;97.40
3705;DHT22;1868;48.918;9.438;2023-05-10T09:01:23;16.80;97.40
3705;DHT22;1868;48.918;9.438;2023-05-10T09:03:53;17.00;97.40
3705;DHT22;1868;48.918;9.438;2023-05-10T09:06:22;17.10;97.40
3705;DHT22;1868;48.918;9.438;2023-05-10T09:08:50;17.20;97.40
3705;DHT22;1868;48.918;9.438;2023-05-10T09:11:21;17.30;97.40
3705;DHT22;1868;48.918;9.438;2023-05-10T09:13:52;17.40;97.40
3705;DHT22;1868;48.918;9.438;2023-05-10T09:16:21;17.60;97.40
3705;DHT22;1868;48.918;9.438;2023-05-10T09:18:51;17.80;97.40
3705;DHT22;1868;48.918;9.438;2023-05-10T09:21:19;18.00;97.40
3705;DHT22;1868;48.918;9.438;2023-05-10T09:23:49;18.10;97.40
3705;DHT22;1868;48.918;9.438;2023-05-10T09:26:24;18.20;97.40
3705;DHT22;1868;48.918;9.438;2023-05-10T09:28:56;18.30;97.40
3705;DHT22;1868;48.918;9.438;2023-05-10T09:31:44;18.40;97.40
3705;DHT22;1868;48.918;9.438;2023-05-10T09:34:17;18.50;97.40
3705;DHT22;1868;48.918;9.438;2023-05-10T09:36:55;18.60;97.40
3705;DHT22;1868;48.918;9.438;2023-05-10T09:39:31;18.60;97.40
3705;DHT22;1868;48.918;9.438;2023-05-10T09:42:01;18.60;97.40
3705;DHT22;1868;48.918;9.438;2023-05-10T09:44:33;18.60;97.40
3705;DHT22;1868;48.918;9.438;2023-05-10T09:47:03;18.60;97.40
3705;DHT22;1868;48.918;9.438;2023-05-10T09:49:32;18.50;97.40
3705;DHT22;1868;48.918;9.438;2023-05-10T09:52:05;18.50;97.40
3705;DHT22;1868;48.918;9.438;2023-05-10T09:54:34;18.20;97.40
3705;DHT22;1868;48.918;9.438;2023-05-10T09:57:03;17.90;97.40
3705;DHT22;1868;48.918;9.438;2023-05-10T09:59:34;17.70;97.40
3705;DHT22;1868;48.918;9.438;2023-05-10T10:02:03;17.60;97.40
3705;DHT22;1868;48.918;9.438;2023-05-10T10:04:32;17.60;97.40
3705;DHT22;1868;48.918;9.438;2023-05-10T10:07:08;17.70;97.40
3705;DHT22;1868;48.918;9.438;2023-05-10T10:09:37;17.90;97.40
3705;DHT22;1868;48.918;9.438;2023-05-10T10:12:06;18.00;97.40
3705;DHT22;1868;48.918;9.438;2023-05-10T10:14:37;18.30;97.40
3705;DHT22;1868;48.918;9.438;2023-05-10T10:17:06;18.50;97.40
3705;DHT22;1868;48.918;9.438;2023-05-10T10:19:36;18.80;97.40
3705;DHT22;1868;48.918;9.438;2023-05-10T10:22:05;19.10;97.40
3705;DHT22;1868;48.918;9.438;2023-05-10T10:24:34;19.30;97.40
3705;DHT22;1868;48.918;9.438;2023-05-10T10:27:09;19.60;97.40
3705;DHT22;1868;48.918;9.438;2023-05-10T10:29:52;19.80;97.40
3705;DHT22;1868;48.918;9.438;2023-05-10T10:32:35;20.10;97.40
3705;DHT22;1868;48.918;9.438;2023-05-10T10:35:10;20.50;97.40
3705;DHT22;1868;48.918;9.438;2023-05-10T10:37:44;20.90;97.40
3705;DHT22;1868;48.918;9.438;2023-05-10T10:40:29;21.50;97.40
3705;DHT22;1868;48.918;9.438;2023-05-10T10:43:22;21.70;97.40
3705;DHT22;1868;48.918;9.438;2023-05-10T10:46:21;21.70;97.40
3705;DHT22;1868;48.918;9.438;2023-05-10T10:48:51;21.40;97.40
3705;DHT22;1868;48.918;9.438;2023-05-10T10:51:37;21.00;97.40
3705;DHT22;1868;48.918;9.438;2023-05-10T10:54:11;20.60;97.40
3705;DHT22;1868;48.918;9.438;2023-05-10T10:56:44;20.30;97.40
3705;DHT22;1868;48.918;9.438;2023-05-10T10:59:27;20.00;97.40
3705;DHT22;1868;48.918;9.438;2023-05-10T11:01:57;19.80;97.40
3705;DHT22;1868;48.918;9.438;2023-05-10T11:04:27;19.60;97.40
3705;DHT22;1868;48.918;9.438;2023-05-10T11:07:18;19.40;97.40
3705;DHT22;1868;48.918;9.438;2023-05-10T11:09:47;19.20;97.40
3705;DHT22;1868;48.918;9.438;2023-05-10T11:12:16;19.00;97.40
3705;DHT22;1868;48.918;9.438;2023-05-10T11:14:49;19.00;97.40
3705;DHT22;1868;48.918;9.438;2023-05-10T11:17:24;18.90;97.40
3705;DHT22;1868;48.918;9.438;2023-05-10T11:20:06;18.80;97.40
3705;DHT22;1868;48.918;9.438;2023-05-10T11:22:49;18.90;97.40
3705;DHT22;1868;48.918;9.438;2023-05-10T11:25:25;18.90;97.40
3705;DHT22;1868;48.918;9.438;2023-05-10T11:27:55;18.80;97.40
3705;DHT22;1868;48.918;9.438;2023-05-10T11:30:24;18.70;97.40
3705;DHT22;1868;48.918;9.438;2023-05-10T11:32:55;18.60;97.40
3705;DHT22;1868;48.918;9.438;2023-05-10T11:35:26;18.40;97.40
3705;DHT22;1868;48.918;9.438;2023-05-10T11:37:57;18.10;97.40
3705;DHT22;1868;48.918;9.438;2023-05-10T11:40:27;17.70;97.40
3705;DHT22;1868;48.918;9.438;2023-05-10T11:42:56;17.60;97.40
3705;DHT22;1868;48.918;9.438;2023-05-10T11:45:26;17.60;97.40
3705;DHT22;1868;48.918;9.438;2023-05-10T11:47:58;17.80;97.40
3705;DHT22;1868;48.918;9.438;2023-05-10T11:50:29;18.00;97.40
3705;DHT22;1868;48.918;9.438;2023-05-10T11:52:58;18.20;97.40
3705;DHT22;1868;48.918;9.438;2023-05-10T11:55:28;18.50;97.40
3705;DHT22;1868;48.918;9.438;2023-05-10T11:58:01;18.60;97.40
3705;DHT22;1868;48.918;9.438;2023-05-10T12:00:30;19.00;97.40
3705;DHT22;1868;48.918;9.438;2023-05-10T12:03:02;19.20;97.40
3705;DHT22;1868;48.918;9.438;2023-05-10T12:05:32;19.50;97.40
3705;DHT22;1868;48.918;9.438;2023-05-10T12:08:12;19.60;97.40
3705;DHT22;1868;48.918;9.438;2023-05-10T12:10:41;19.70;97.40
3705;DHT22;1868;48.918;9.438;2023-05-10T12:13:12;19.90;97.40
3705;DHT22;1868;48.918;9.438;2023-05-10T12:15:42;19.90;97.40
3705;DHT22;1868;48.918;9.438;2023-05-10T12:18:13;19.90;97.40
3705;DHT22;1868;48.918;9.438;2023-05-10T12:20:43;19.90;97.40
3705;DHT22;1868;48.918;9.438;2023-05-10T12:23:13;19.90;97.40
3705;DHT22;1868;48.918;9.438;2023-05-10T12:25:42;19.80;97.40
3705;DHT22;1868;48.918;9.438;2023-05-10T12:28:13;19.70;97.40
3705;DHT22;1868;48.918;9.438;2023-05-10T12:30:42;19.70;97.40
3705;DHT22;1868;48.918;9.438;2023-05-10T12:33:13;19.60;97.40
3705;DHT22;1868;48.918;9.438;2023-05-10T12:35:46;19.60;97.40
3705;DHT22;1868;48.918;9.438;2023-05-10T12:38:32;19.60;97.40
3705;DHT22;1868;48.918;9.438;2023-05-10T12:41:03;19.70;97.40
3705;DHT22;1868;48.918;9.438;2023-05-10T12:43:33;19.60;97.10
3705;DHT22;1868;48.918;9.438;2023-05-10T12:46:06;19.60;97.40
3705;DHT22;1868;48.918;9.438;2023-05-10T12:48:38;19.60;97.40
3705;DHT22;1868;48.918;9.438;2023-05-10T12:51:08;19.50;97.30
3705;DHT22;1868;48.918;9.438;2023-05-10T12:53:40;19.40;97.40
3705;DHT22;1868;48.918;9.438;2023-05-10T12:56:12;19.30;97.40
3705;DHT22;1868;48.918;9.438;2023-05-10T12:58:41;19.30;97.10
3705;DHT22;1868;48.918;9.438;2023-05-10T13:01:15;19.20;97.40
3705;DHT22;1868;48.918;9.438;2023-05-10T13:03:46;19.00;97.40
3705;DHT22;1868;48.918;9.438;2023-05-10T13:06:15;19.10;97.40
3705;DHT22;1868;48.918;9.438;2023-05-10T13:08:44;19.00;97.40
3705;DHT22;1868;48.918;9.438;2023-05-10T13:11:12;18.90;97.40
3705;DHT22;1868;48.918;9.438;2023-05-10T13:13:44;18.80;97.40
3705;DHT22;1868;48.918;9.438;2023-05-10T13:16:13;18.70;96.40
3705;DHT22;1868;48.918;9.438;2023-05-10T13:18:42;18.50;96.80
3705;DHT22;1868;48.918;9.438;2023-05-10T13:21:12;18.50;95.80
3705;DHT22;1868;48.918;9.438;2023-05-10T13:23:42;18.30;95.70
3705;DHT22;1868;48.918;9.438;2023-05-10T13:26:11;18.20;96.80
3705;DHT22;1868;48.918;9.438;2023-05-10T13:28:40;18.10;96.50
3705;DHT22;1868;48.918;9.438;2023-05-10T13:31:11;18.10;97.00
3705;DHT22;1868;48.918;9.438;2023-05-10T13:33:40;18.10;97.40
3705;DHT22;1868;48.918;9.438;2023-05-10T13:36:09;18.20;97.40
3705;DHT22;1868;48.918;9.438;2023-05-10T13:38:39;18.30;97.40
3705;DHT22;1868;48.918;9.438;2023-05-10T13:41:08;18.30;97.40
3705;DHT22;1868;48.918;9.438;2023-05-10T13:43:37;18.40;97.40
3705;DHT22;1868;48.918;9.438;2023-05-10T13:46:06;18.50;96.80
3705;DHT22;1868;48.918;9.438;2023-05-10T13:48:35;18.60;95.80
3705;DHT22;1868;48.918;9.438;2023-05-10T13:51:05;18.60;95.80
3705;DHT22;1868;48.918;9.438;2023-05-10T13:53:35;18.60;95.40
3705;DHT22;1868;48.918;9.438;2023-05-10T13:56:07;18.60;95.50
3705;DHT22;1868;48.918;9.438;2023-05-10T13:58:35;18.60;96.30
3705;DHT22;1868;48.918;9.438;2023-05-10T14:01:04;18.50;95.60
3705;DHT22;1868;48.918;9.438;2023-05-10T14:03:33;18.50;96.20
3705;DHT22;1868;48.918;9.438;2023-05-10T14:06:02;18.40;97.20
3705;DHT22;1868;48.918;9.438;2023-05-10T14:08:30;18.40;95.90
3705;DHT22;1868;48.918;9.438;2023-05-10T14:10:59;18.30;96.70
3705;DHT22;1868;48.918;9.438;2023-05-10T14:13:31;18.20;96.40
3705;DHT22;1868;48.918;9.438;2023-05-10T14:16:00;18.20;96.40
3705;DHT22;1868;48.918;9.438;2023-05-10T14:18:30;18.20;96.10
3705;DHT22;1868;48.918;9.438;2023-05-10T14:20:58;18.20;96.40
3705;DHT22;1868;48.918;9.438;2023-05-10T14:23:27;18.10;97.40
3705;DHT22;1868;48.918;9.438;2023-05-10T14:25:57;18.10;96.80
3705;DHT22;1868;48.918;9.438;2023-05-10T14:28:26;18.10;97.40
3705;DHT22;1868;48.918;9.438;2023-05-10T14:30:58;18.10;96.60
3705;DHT22;1868;48.918;9.438;2023-05-10T14:33:28;18.20;97.40
3705;DHT22;1868;48.918;9.438;2023-05-10T14:35:56;18.20;97.40
3705;DHT22;1868;48.918;9.438;2023-05-10T14:38:27;18.20;97.40
3705;DHT22;1868;48.918;9.438;2023-05-10T14:40:56;18.20;97.40
3705;DHT22;1868;48.918;9.438;2023-05-10T14:43:25;18.20;97.40
3705;DHT22;1868;48.918;9.438;2023-05-10T14:45:55;18.20;97.40
3705;DHT22;1868;48.918;9.438;2023-05-10T14:48:25;18.20;97.40
3705;DHT22;1868;48.918;9.438;2023-05-10T14:50:54;18.10;97.40
3705;DHT22;1868;48.918;9.438;2023-05-10T14:53:24;18.10;97.40
3705;DHT22;1868;48.918;9.438;2023-05-10T14:55:53;18.10;97.40
3705;DHT22;1868;48.918;9.438;2023-05-10T14:58:21;18.00;97.40
3705;DHT22;1868;48.918;9.438;2023-05-10T15:00:51;18.00;97.40
3705;DHT22;1868;48.918;9.438;2023-05-10T15:03:20;18.00;97.40
3705;DHT22;1868;48.918;9.438;2023-05-10T15:05:51;18.00;97.40
3705;DHT22;1868;48.918;9.438;2023-05-10T15:08:20;18.00;97.40
3705;DHT22;1868;48.918;9.438;2023-05-10T15:10:48;18.00;97.40
3705;DHT22;1868;48.918;9.438;2023-05-10T15:13:17;18.10;97.40
3705;DHT22;1868;48.918;9.438;2023-05-10T15:15:46;18.10;97.40
3705;DHT22;1868;48.918;9.438;2023-05-10T15:18:16;18.10;97.40
3705;DHT22;1868;48.918;9.438;2023-05-10T15:20:44;18.20;97.40
3705;DHT22;1868;48.918;9.438;2023-05-10T15:23:15;18.20;97.40
3705;DHT22;1868;48.918;9.438;2023-05-10T15:25:44;18.20;97.40
3705;DHT22;1868;48.918;9.438;2023-05-10T15:28:12;18.20;97.40
3705;DHT22;1868;48.918;9.438;2023-05-10T15:30:41;18.20;97.40
3705;DHT22;1868;48.918;9.438;2023-05-10T15:33:12;18.10;97.40
3705;DHT22;1868;48.918;9.438;2023-05-10T15:35:43;18.20;97.40
3705;DHT22;1868;48.918;9.438;2023-05-10T15:38:12;18.20;97.40
3705;DHT22;1868;48.918;9.438;2023-05-10T15:40:42;18.10;97.40
3705;DHT22;1868;48.918;9.438;2023-05-10T15:43:10;18.10;97.40
3705;DHT22;1868;48.918;9.438;2023-05-10T15:45:39;18.10;97.40
3705;DHT22;1868;48.918;9.438;2023-05-10T15:48:08;18.20;96.40
3705;DHT22;1868;48.918;9.438;2023-05-10T15:50:37;18.20;97.10
3705;DHT22;1868;48.918;9.438;2023-05-10T15:53:06;18.20;97.40
3705;DHT22;1868;48.918;9.438;2023-05-10T15:55:35;18.10;97.40
3705;DHT22;1868;48.918;9.438;2023-05-10T15:58:06;18.10;97.40
3705;DHT22;1868;48.918;9.438;2023-05-10T16:00:36;18.10;97.40
3705;DHT22;1868;48.918;9.438;2023-05-10T16:03:06;18.00;97.20
3705;DHT22;1868;48.918;9.438;2023-05-10T16:05:35;17.90;97.40
3705;DHT22;1868;48.918;9.438;2023-05-10T16:08:04;17.90;97.40
3705;DHT22;1868;48.918;9.438;2023-05-10T16:10:33;17.90;97.30
3705;DHT22;1868;48.918;9.438;2023-05-10T16:13:01;17.90;97.40
3705;DHT22;1868;48.918;9.438;2023-05-10T16:15:32;17.80;97.40
3705;DHT22;1868;48.918;9.438;2023-05-10T16:18:01;17.80;97.40
3705;DHT22;1868;48.918;9.438;2023-05-10T16:20:32;17.70;97.40
3705;DHT22;1868;48.918;9.438;2023-05-10T16:23:03;17.60;97.40
3705;DHT22;1868;48.918;9.438;2023-05-10T16:25:34;17.60;97.40
3705;DHT22;1868;48.918;9.438;2023-05-10T16:28:03;17.60;97.40
3705;DHT22;1868;48.918;9.438;2023-05-10T16:30:33;17.50;97.40